Terminal Aerodrome Forecast
Issued by NWS

Current Version | Previous Version | Text Only | Print | Product List | Glossary Off
Versions: 1 2 3 4 5 6 7 8 9 10 11 12 13 14 15 16

000
FTUS41 KILN 171500 AAA
TAFLUK
TAF AMD
KLUK 171500Z 1715/1812 20007KT P6SM FEW300
     FM172300 00000KT P6SM SKC
     FM180600 00000KT 3SM BR SCT002
     FM180800 00000KT 1SM BR SCT002
      TEMPO 1808/1812 1/4SM FG VV002=

USA.gov is the U.S. government's official web portal to all federal, state and local government web resources and services.